Time;durP1;ratioP1;P1;durP2;ratioP2;P2;SDS_P1;SDS_P2;PMS_P1;PMS_P2;Temp;Humidity;BMP_temperature;BMP_pressure;BME280_temperature;BME280_humidity;BME280_pressure;Samples;Min_cycle;Max_cycle;Signal;HPM_P1;HPM_P2
2024/02/07 00:02:05;;;;;;;9.63;1.87;;;6.00;99.90;;;;;;5032569;28;20489;-75
2024/02/07 00:04:34;;;;;;;5.40;1.53;;;6.00;99.90;;;;;;5032423;28;20466;-76
2024/02/07 00:07:02;;;;;;;7.10;1.90;;;6.00;99.90;;;;;;5032493;28;20791;-76
2024/02/07 00:09:30;;;;;;;6.30;1.50;;;6.00;99.90;;;;;;5032469;28;20485;-75
2024/02/07 00:11:59;;;;;;;8.73;2.70;;;6.00;99.90;;;;;;5033864;28;20992;-75
2024/02/07 00:14:27;;;;;;;6.87;1.63;;;6.00;99.90;;;;;;5033830;28;20457;-75
2024/02/07 00:16:56;;;;;;;6.93;1.80;;;6.00;99.90;;;;;;5033549;28;20534;-75
2024/02/07 00:19:25;;;;;;;7.10;1.97;;;6.00;99.90;;;;;;5033552;28;20441;-75
2024/02/07 00:21:54;;;;;;;9.53;1.87;;;6.00;99.90;;;;;;5032360;28;20911;-76
2024/02/07 00:24:22;;;;;;;9.57;1.77;;;5.90;99.90;;;;;;5032198;28;20466;-75
2024/02/07 00:26:50;;;;;;;4.63;1.63;;;6.00;99.90;;;;;;5032043;28;20450;-75
2024/02/07 00:29:19;;;;;;;8.00;1.73;;;5.90;99.90;;;;;;5033868;28;20437;-75
2024/02/07 00:31:47;;;;;;;4.53;1.80;;;5.90;99.90;;;;;;5033448;28;20437;-75
2024/02/07 00:34:16;;;;;;;6.03;1.77;;;5.90;99.90;;;;;;5032078;28;20468;-76
2024/02/07 00:36:45;;;;;;;8.77;1.97;;;5.90;99.90;;;;;;5032009;28;20447;-75
2024/02/07 00:39:14;;;;;;;6.10;1.93;;;5.80;99.90;;;;;;5033186;28;20481;-75
2024/02/07 00:41:42;;;;;;;7.30;1.60;;;5.80;99.90;;;;;;5033333;28;20431;-74
2024/02/07 00:44:10;;;;;;;6.43;2.00;;;5.80;99.90;;;;;;5033220;28;20693;-75
2024/02/07 00:46:39;;;;;;;7.80;2.10;;;5.80;99.90;;;;;;5033374;28;20444;-75
2024/02/07 00:49:12;;;;;;;10.83;2.10;;;5.80;99.90;;;;;;5032006;28;20446;-75
2024/02/07 00:51:41;;;;;;;9.07;1.87;;;5.80;99.90;;;;;;5032034;28;20450;-75
2024/02/07 00:54:11;;;;;;;7.30;2.10;;;5.80;99.90;;;;;;5031933;28;20563;-75
2024/02/07 00:56:40;;;;;;;6.93;2.00;;;5.80;99.90;;;;;;5033425;28;20473;-75
2024/02/07 00:59:08;;;;;;;8.50;2.60;;;5.80;99.90;;;;;;5031740;28;20564;-75
2024/02/07 01:01:36;;;;;;;5.00;2.00;;;5.80;99.90;;;;;;5031888;28;20559;-75
2024/02/07 01:04:05;;;;;;;10.63;2.77;;;5.80;99.90;;;;;;5031796;28;20473;-75
2024/02/07 01:06:33;;;;;;;6.93;1.87;;;5.80;99.90;;;;;;5033089;28;20432;-74
2024/02/07 01:09:02;;;;;;;6.97;2.03;;;5.70;99.90;;;;;;5033090;28;20961;-75
2024/02/07 01:11:32;;;;;;;8.47;2.30;;;5.70;99.90;;;;;;5031740;28;20461;-75
2024/02/07 01:14:01;;;;;;;6.23;1.63;;;5.70;99.90;;;;;;5032825;28;20505;-75
2024/02/07 01:16:29;;;;;;;7.83;2.10;;;5.70;99.90;;;;;;5033208;28;20458;-75
2024/02/07 01:18:57;;;;;;;10.33;2.57;;;5.70;99.90;;;;;;5032902;28;20832;-74
2024/02/07 01:21:26;;;;;;;5.70;2.53;;;5.70;99.90;;;;;;5033002;28;20472;-75
2024/02/07 01:23:54;;;;;;;6.77;1.87;;;5.70;99.90;;;;;;5031553;28;20477;-75
2024/02/07 01:26:22;;;;;;;8.03;2.00;;;5.70;99.90;;;;;;5032849;28;20433;-75
2024/02/07 01:28:52;;;;;;;12.93;2.50;;;5.70;99.90;;;;;;5031705;28;20885;-75
2024/02/07 01:31:23;;;;;;;10.63;2.17;;;5.70;99.90;;;;;;5031570;28;20940;-75
2024/02/07 01:33:51;;;;;;;10.17;2.20;;;5.70;99.90;;;;;;5033100;28;20426;-75
2024/02/07 01:36:21;;;;;;;7.13;2.27;;;5.70;99.90;;;;;;5031582;28;20520;-75
2024/02/07 01:38:49;;;;;;;7.40;1.80;;;5.70;99.90;;;;;;5032725;28;20884;-75
2024/02/07 01:41:17;;;;;;;4.97;2.00;;;5.70;99.90;;;;;;5035129;28;20539;-75
2024/02/07 01:43:46;;;;;;;12.77;4.47;;;5.70;99.90;;;;;;5036464;28;20536;-75
2024/02/07 01:46:15;;;;;;;14.43;2.77;;;5.70;99.90;;;;;;5036453;28;20434;-75
2024/02/07 01:48:44;;;;;;;13.40;2.70;;;5.70;99.90;;;;;;5035069;28;20448;-75
2024/02/07 01:51:13;;;;;;;5.10;1.97;;;5.70;99.90;;;;;;5035117;28;20534;-75
2024/02/07 01:53:42;;;;;;;7.50;1.87;;;5.70;99.90;;;;;;5034963;28;20450;-75
2024/02/07 01:56:11;;;;;;;11.43;1.67;;;5.70;99.90;;;;;;5036467;28;20442;-75
2024/02/07 01:58:39;;;;;;;5.43;1.70;;;5.70;99.90;;;;;;5036191;28;20562;-75
2024/02/07 02:01:08;;;;;;;8.33;2.43;;;5.70;99.90;;;;;;5034813;28;20447;-75
2024/02/07 02:03:37;;;;;;;9.77;2.17;;;5.70;99.90;;;;;;5036312;28;20449;-75
2024/02/07 02:06:06;;;;;;;6.87;1.90;;;5.70;99.90;;;;;;5034779;28;20439;-75
2024/02/07 02:08:34;;;;;;;5.30;1.60;;;5.70;99.90;;;;;;5034764;28;20537;-75
2024/02/07 02:11:08;;;;;;;5.23;2.20;;;5.70;99.90;;;;;;5035977;28;20953;-75
2024/02/07 02:13:37;;;;;;;6.90;2.50;;;5.70;99.90;;;;;;5035915;28;20454;-75
2024/02/07 02:16:06;;;;;;;5.47;2.40;;;5.70;99.90;;;;;;5036185;28;20460;-75
2024/02/07 02:18:34;;;;;;;8.87;2.60;;;5.70;99.90;;;;;;5034398;28;21005;-75
2024/02/07 02:21:06;;;;;;;9.03;2.43;;;5.70;99.90;;;;;;5035788;28;20510;-75
2024/02/07 02:23:58;;;;;;;9.00;2.30;;;5.70;99.90;;;;;;5035769;28;20493;-75
2024/02/07 02:26:57;;;;;;;9.07;2.67;;;5.70;99.90;;;;;;5035889;28;20426;-75
2024/02/07 02:29:36;;;;;;;8.43;2.20;;;5.70;99.90;;;;;;5035928;28;20503;-75
2024/02/07 02:32:07;;;;;;;5.03;1.67;;;5.70;99.90;;;;;;5034363;28;20432;-75
2024/02/07 02:34:37;;;;;;;7.07;2.07;;;5.70;99.90;;;;;;5035453;28;20991;-75
2024/02/07 02:37:06;;;;;;;8.00;2.20;;;5.70;99.90;;;;;;5034239;28;20439;-75
2024/02/07 02:39:36;;;;;;;12.47;2.17;;;5.70;99.90;;;;;;5034142;28;20523;-75
2024/02/07 02:42:05;;;;;;;11.63;3.70;;;5.70;99.90;;;;;;5035431;28;20464;-75
2024/02/07 02:44:34;;;;;;;7.97;2.27;;;5.70;99.90;;;;;;5033985;28;20473;-75
2024/02/07 02:47:03;;;;;;;6.53;2.27;;;5.70;99.90;;;;;;5034050;28;21027;-75
2024/02/07 02:49:31;;;;;;;9.67;1.80;;;5.70;99.90;;;;;;5035232;28;20796;-75
2024/02/07 02:52:00;;;;;;;11.67;2.50;;;5.70;99.90;;;;;;5033784;28;20438;-75
2024/02/07 02:54:31;;;;;;;6.10;2.70;;;5.70;99.90;;;;;;5033759;28;20466;-75
2024/02/07 02:57:02;;;;;;;4.70;1.90;;;5.70;99.90;;;;;;5035134;28;20421;-75
2024/02/07 02:59:32;;;;;;;4.33;1.50;;;5.70;99.90;;;;;;5033823;28;20847;-75
2024/02/07 03:02:08;;;;;;;8.97;2.10;;;5.70;99.90;;;;;;5033781;28;20497;-75
2024/02/07 03:04:41;;;;;;;8.67;2.77;;;5.70;99.90;;;;;;5033833;28;20481;-75
2024/02/07 03:09:58;;;;;;;8.43;1.87;;;5.70;99.90;;;;;;5033455;28;20954;-75
2024/02/07 03:12:26;;;;;;;6.80;1.90;;;5.70;99.90;;;;;;5034729;28;20812;-75
2024/02/07 03:14:54;;;;;;;6.90;2.20;;;5.70;99.90;;;;;;5034639;28;20505;-76
2024/02/07 03:17:24;;;;;;;8.40;2.10;;;5.70;99.90;;;;;;5034740;28;20434;-75
2024/02/07 03:19:52;;;;;;;8.00;2.30;;;5.70;99.90;;;;;;5033309;28;20551;-76
2024/02/07 03:22:21;;;;;;;5.50;1.70;;;5.70;99.90;;;;;;5034667;28;20439;-75
2024/02/07 03:24:55;;;;;;;8.00;2.40;;;5.70;99.90;;;;;;5033515;28;20475;-75
2024/02/07 03:27:24;;;;;;;8.80;2.50;;;5.70;99.90;;;;;;5033342;28;21051;-77
2024/02/07 03:29:53;;;;;;;8.50;2.30;;;5.70;99.90;;;;;;5034467;28;20442;-75
2024/02/07 03:32:21;;;;;;;14.13;3.90;;;5.80;99.90;;;;;;5033146;28;20451;-75
2024/02/07 03:34:51;;;;;;;8.80;2.83;;;5.80;99.90;;;;;;5033099;28;20502;-75
2024/02/07 03:37:19;;;;;;;7.13;2.50;;;5.80;99.90;;;;;;5034311;28;20507;-75
2024/02/07 03:39:48;;;;;;;10.87;3.00;;;5.80;99.90;;;;;;5034794;28;20470;-75
2024/02/07 03:42:16;;;;;;;12.70;3.27;;;5.80;99.90;;;;;;5032934;28;20449;-75
2024/02/07 03:44:45;;;;;;;8.63;2.77;;;5.80;99.90;;;;;;5034427;28;20469;-75
2024/02/07 03:47:14;;;;;;;10.97;2.50;;;5.80;99.90;;;;;;5032910;28;20475;-76
2024/02/07 03:49:42;;;;;;;8.53;2.80;;;5.80;99.90;;;;;;5032918;28;20487;-75
2024/02/07 03:52:12;;;;;;;7.73;2.90;;;5.80;99.90;;;;;;5032911;28;20450;-75
2024/02/07 03:54:50;;;;;;;8.33;3.33;;;5.80;99.90;;;;;;5034025;28;20464;-76
2024/02/07 03:57:20;;;;;;;10.40;2.70;;;5.80;99.90;;;;;;5032887;28;20500;-75
2024/02/07 03:59:48;;;;;;;8.40;2.73;;;5.80;99.90;;;;;;5034256;28;20464;-76
2024/02/07 04:02:21;;;;;;;9.90;2.40;;;5.80;99.90;;;;;;5032192;28;20493;-76
2024/02/07 04:04:50;;;;;;;9.57;2.90;;;5.80;99.90;;;;;;5034062;28;20520;-75
2024/02/07 04:07:20;;;;;;;8.57;2.90;;;5.80;99.90;;;;;;5033835;28;20864;-75
2024/02/07 04:09:48;;;;;;;10.27;2.73;;;5.80;99.90;;;;;;5034501;28;20782;-76
2024/02/07 05:17:42;;;;;;;8.23;2.90;;;5.80;99.90;;;;;;5035742;28;20451;-75
2024/02/07 05:20:11;;;;;;;11.90;3.80;;;5.80;99.90;;;;;;5035640;28;20476;-76
2024/02/07 05:22:41;;;;;;;18.80;4.73;;;5.80;99.90;;;;;;5036973;28;20439;-76
2024/02/07 05:25:10;;;;;;;8.87;3.47;;;5.80;99.90;;;;;;5035503;28;20820;-76
2024/02/07 05:27:40;;;;;;;14.37;4.70;;;5.80;99.90;;;;;;5035616;28;20456;-76
2024/02/07 05:30:09;;;;;;;14.77;3.50;;;5.80;99.90;;;;;;5036785;28;20435;-76
2024/02/07 05:32:37;;;;;;;12.83;3.97;;;5.80;99.90;;;;;;5036681;28;20430;-76
2024/02/07 05:35:06;;;;;;;14.50;4.03;;;5.80;99.90;;;;;;5035369;28;20459;-76
2024/02/07 05:37:35;;;;;;;11.97;4.20;;;5.80;99.90;;;;;;5036616;28;20444;-76
2024/02/07 05:40:04;;;;;;;16.80;4.13;;;5.80;99.90;;;;;;5035287;28;20494;-76
2024/02/07 05:42:32;;;;;;;13.00;4.07;;;5.70;99.90;;;;;;5036523;28;20434;-76
2024/02/07 05:45:02;;;;;;;14.00;4.07;;;5.80;99.90;;;;;;5036535;28;20459;-76
2024/02/07 05:47:30;;;;;;;10.27;3.50;;;5.70;99.90;;;;;;5035234;28;20439;-76
2024/02/07 05:49:59;;;;;;;14.93;3.60;;;5.70;99.90;;;;;;5036468;28;20442;-76
2024/02/07 05:52:27;;;;;;;18.30;4.73;;;5.70;99.90;;;;;;5036330;28;20924;-76
2024/02/07 05:54:56;;;;;;;12.23;3.07;;;5.70;99.90;;;;;;5036363;28;20461;-76
2024/02/07 05:57:25;;;;;;;15.30;4.43;;;5.70;99.90;;;;;;5036323;28;20464;-76
2024/02/07 05:59:53;;;;;;;13.00;4.40;;;5.60;99.90;;;;;;5034917;28;20512;-76
2024/02/07 06:02:22;;;;;;;12.57;3.40;;;5.60;99.90;;;;;;5034979;28;20471;-76
2024/02/07 06:04:52;;;;;;;16.77;4.10;;;5.60;99.90;;;;;;5034780;28;20462;-76
2024/02/07 06:07:20;;;;;;;13.23;4.77;;;5.60;99.90;;;;;;5034831;28;20980;-76
2024/02/07 06:09:49;;;;;;;18.47;3.37;;;5.50;99.90;;;;;;5036328;28;20437;-76
2024/02/07 06:12:17;;;;;;;16.00;4.30;;;5.50;99.90;;;;;;5036163;28;20443;-76
2024/02/07 06:14:45;;;;;;;13.80;3.50;;;5.50;99.90;;;;;;5034712;28;20531;-76
2024/02/07 06:17:13;;;;;;;14.57;4.00;;;5.50;99.90;;;;;;5035932;28;20476;-76
2024/02/07 06:19:43;;;;;;;10.00;3.67;;;5.50;99.90;;;;;;5035479;28;20482;-76
2024/02/07 06:22:12;;;;;;;11.20;4.10;;;5.50;99.90;;;;;;5034631;28;20451;-76
2024/02/07 06:24:40;;;;;;;9.07;3.43;;;5.50;99.90;;;;;;5035693;28;20463;-76
2024/02/07 06:27:09;;;;;;;12.63;3.83;;;5.50;99.90;;;;;;5034147;28;20447;-76
2024/02/07 06:29:37;;;;;;;11.97;3.83;;;5.50;99.90;;;;;;5034495;28;20524;-76
2024/02/07 06:32:09;;;;;;;14.27;4.10;;;5.40;99.90;;;;;;5035988;28;20858;-76
2024/02/07 06:34:37;;;;;;;13.20;3.40;;;5.50;99.90;;;;;;5035874;28;20462;-76
2024/02/07 06:37:07;;;;;;;14.20;3.43;;;5.40;99.90;;;;;;5034363;28;20461;-76
2024/02/07 06:39:36;;;;;;;13.83;3.17;;;5.40;99.90;;;;;;5035489;28;20863;-76
2024/02/07 06:42:05;;;;;;;11.63;4.17;;;5.40;99.90;;;;;;5035640;28;20522;-76
2024/02/07 06:44:33;;;;;;;10.90;3.43;;;5.40;99.90;;;;;;5034092;28;20520;-76
2024/02/07 06:47:01;;;;;;;14.60;3.40;;;5.40;99.90;;;;;;5034140;28;20455;-76
2024/02/07 06:49:34;;;;;;;21.17;4.20;;;5.40;99.90;;;;;;5034032;28;20448;-76
2024/02/07 06:52:02;;;;;;;18.67;4.50;;;5.40;99.90;;;;;;5034043;28;20439;-76
2024/02/07 06:54:33;;;;;;;8.97;3.47;;;5.40;99.90;;;;;;5033895;28;20840;-76
2024/02/07 06:57:01;;;;;;;8.20;2.93;;;5.40;99.90;;;;;;5035289;28;20465;-77
2024/02/07 06:59:29;;;;;;;15.63;3.93;;;5.30;99.90;;;;;;5033857;28;20443;-77
2024/02/07 07:01:57;;;;;;;12.53;4.00;;;5.30;99.90;;;;;;5035236;28;20824;-76
2024/02/07 07:04:25;;;;;;;10.67;3.30;;;5.30;99.90;;;;;;5033714;28;20513;-76
2024/02/07 07:06:54;;;;;;;12.93;4.10;;;5.30;99.90;;;;;;5033720;28;20457;-76
2024/02/07 07:09:22;;;;;;;12.60;3.50;;;5.30;99.90;;;;;;5033674;28;20469;-76
2024/02/07 07:11:51;;;;;;;12.73;3.50;;;5.20;99.90;;;;;;5033628;28;20456;-76
2024/02/07 07:14:20;;;;;;;11.60;3.60;;;5.20;99.90;;;;;;5033557;28;20984;-76
2024/02/07 07:16:48;;;;;;;14.80;4.93;;;5.20;99.90;;;;;;5033575;28;20475;-76
2024/02/07 07:19:17;;;;;;;7.93;2.80;;;5.20;99.90;;;;;;5035082;28;20929;-76
2024/02/07 07:21:45;;;;;;;12.03;3.43;;;5.20;99.90;;;;;;5033452;28;21026;-76
2024/02/07 07:24:13;;;;;;;12.10;3.50;;;5.20;99.90;;;;;;5033332;28;20463;-76
2024/02/07 07:26:41;;;;;;;14.90;3.83;;;5.20;99.90;;;;;;5033366;28;20501;-76
2024/02/07 07:29:11;;;;;;;12.57;3.40;;;5.20;99.90;;;;;;5033301;28;20447;-76
2024/02/07 07:31:40;;;;;;;13.93;4.53;;;5.20;99.90;;;;;;5033276;28;20625;-76
2024/02/07 07:34:08;;;;;;;15.43;4.10;;;5.10;99.90;;;;;;5033094;28;20466;-76
2024/02/07 07:36:37;;;;;;;11.00;3.40;;;5.10;99.90;;;;;;5033977;28;20530;-76
2024/02/07 07:39:05;;;;;;;9.83;4.17;;;5.10;99.90;;;;;;5032771;28;20453;-76
2024/02/07 07:41:33;;;;;;;14.10;4.33;;;5.10;99.90;;;;;;5032940;28;20467;-76
2024/02/07 07:44:02;;;;;;;13.20;3.20;;;5.10;99.90;;;;;;5034543;28;20456;-76
2024/02/07 07:46:32;;;;;;;15.73;4.30;;;5.10;99.90;;;;;;5032988;28;20542;-76
2024/02/07 07:49:00;;;;;;;9.63;3.37;;;5.10;99.90;;;;;;5034267;28;20429;-76
2024/02/07 07:51:28;;;;;;;14.00;4.03;;;5.10;99.90;;;;;;5032826;28;20449;-76
2024/02/07 07:53:57;;;;;;;11.13;4.00;;;5.10;99.90;;;;;;5034517;28;20449;-76
2024/02/07 07:56:30;;;;;;;9.33;3.27;;;5.10;99.90;;;;;;5032874;28;20964;-76
2024/02/07 07:58:59;;;;;;;12.30;3.97;;;5.10;99.90;;;;;;5034115;28;20419;-76
2024/02/07 08:01:28;;;;;;;16.67;5.67;;;5.10;99.90;;;;;;5034201;28;20495;-76
2024/02/07 08:03:57;;;;;;;15.70;5.93;;;5.10;99.90;;;;;;5034351;28;20439;-76
2024/02/07 08:06:26;;;;;;;16.83;4.93;;;5.10;99.90;;;;;;5034144;28;20451;-77
2024/02/07 08:08:54;;;;;;;13.27;4.40;;;5.10;99.90;;;;;;5034095;28;20510;-76
2024/02/07 08:11:22;;;;;;;16.00;4.40;;;5.10;99.90;;;;;;5034107;28;20439;-76
2024/02/07 08:13:50;;;;;;;11.43;4.50;;;5.10;99.90;;;;;;5033683;28;20546;-76
2024/02/07 08:16:19;;;;;;;22.07;5.37;;;5.10;99.90;;;;;;5034259;28;20454;-76
2024/02/07 08:18:47;;;;;;;14.23;5.10;;;5.10;99.90;;;;;;5033974;28;20446;-76
2024/02/07 08:21:22;;;;;;;14.63;3.97;;;5.00;99.90;;;;;;5033845;28;20484;-76
2024/02/07 08:23:50;;;;;;;15.70;4.40;;;5.10;99.90;;;;;;5033928;28;20505;-77
2024/02/07 08:26:19;;;;;;;14.07;4.43;;;5.10;99.90;;;;;;5033907;28;20451;-76
2024/02/07 08:28:47;;;;;;;10.80;4.73;;;5.10;99.90;;;;;;5034155;28;20438;-77
2024/02/07 08:31:16;;;;;;;14.00;3.90;;;5.10;99.90;;;;;;5033585;28;20430;-76
2024/02/07 08:33:44;;;;;;;10.47;3.80;;;5.10;99.90;;;;;;5033752;28;20434;-76
2024/02/07 08:36:13;;;;;;;11.03;4.30;;;5.10;99.90;;;;;;5033726;28;20443;-76
2024/02/07 08:38:43;;;;;;;13.23;3.83;;;5.10;99.90;;;;;;5033673;28;20439;-76
2024/02/07 08:41:11;;;;;;;14.17;4.03;;;5.20;99.90;;;;;;5033900;28;20439;-76
2024/02/07 08:43:39;;;;;;;16.27;3.90;;;5.20;99.90;;;;;;5033653;28;20443;-76
2024/02/07 08:46:07;;;;;;;15.30;4.13;;;5.20;99.90;;;;;;5033605;28;20451;-76
2024/02/07 08:48:36;;;;;;;18.03;4.10;;;5.20;99.90;;;;;;5033401;28;20439;-76
2024/02/07 08:51:04;;;;;;;13.40;3.70;;;5.20;99.90;;;;;;5033319;28;20542;-76
2024/02/07 08:53:32;;;;;;;10.00;3.50;;;5.20;99.90;;;;;;5033761;28;20433;-76
2024/02/07 08:56:02;;;;;;;12.80;4.17;;;5.20;99.90;;;;;;5033359;28;20978;-76
2024/02/07 08:58:30;;;;;;;13.73;4.03;;;5.20;99.90;;;;;;5033398;28;20443;-76
2024/02/07 09:01:02;;;;;;;8.87;2.90;;;5.20;99.90;;;;;;5033592;28;20493;-76
2024/02/07 09:03:31;;;;;;;9.37;3.10;;;5.20;99.90;;;;;;5033444;28;20466;-76
2024/02/07 09:05:59;;;;;;;10.53;3.07;;;5.30;99.90;;;;;;5033442;28;20452;-76
2024/02/07 09:08:27;;;;;;;9.53;3.33;;;5.30;99.90;;;;;;5033725;28;20522;-76
2024/02/07 09:10:57;;;;;;;13.13;3.93;;;5.30;99.90;;;;;;5033778;28;20450;-76
2024/02/07 09:13:27;;;;;;;11.20;4.17;;;5.30;99.90;;;;;;5033164;28;20451;-77
2024/02/07 09:15:55;;;;;;;12.23;3.80;;;5.30;99.90;;;;;;5033323;28;20451;-76
2024/02/07 09:18:27;;;;;;;8.67;3.70;;;5.30;99.90;;;;;;5033418;28;20902;-76
2024/02/07 09:20:55;;;;;;;18.70;4.10;;;5.30;99.90;;;;;;5033538;28;21055;-76
2024/02/07 09:23:23;;;;;;;11.40;3.33;;;5.30;99.90;;;;;;5032940;28;20545;-76
2024/02/07 09:25:51;;;;;;;8.13;3.17;;;5.40;99.90;;;;;;5033237;28;20961;-76
2024/02/07 09:28:20;;;;;;;9.33;3.53;;;5.40;99.90;;;;;;5033257;28;20443;-76
2024/02/07 09:30:49;;;;;;;10.07;3.50;;;5.40;99.90;;;;;;5033235;28;20940;-76
2024/02/07 09:33:17;;;;;;;11.50;3.30;;;5.40;99.90;;;;;;5033156;28;20954;-76
2024/02/07 09:35:48;;;;;;;12.20;4.13;;;5.50;99.90;;;;;;5033082;28;20443;-76
2024/02/07 09:38:21;;;;;;;10.37;3.50;;;5.50;99.90;;;;;;5033435;28;20442;-76
2024/02/07 09:40:51;;;;;;;14.77;3.37;;;5.50;99.90;;;;;;5033453;28;20502;-76
2024/02/07 09:43:20;;;;;;;11.90;3.83;;;5.50;99.90;;;;;;5033320;28;20512;-76
2024/02/07 09:45:56;;;;;;;10.77;3.20;;;5.50;99.90;;;;;;5033098;28;20490;-76
2024/02/07 09:48:26;;;;;;;12.07;3.87;;;5.60;99.90;;;;;;5033071;28;20433;-76
2024/02/07 09:50:57;;;;;;;11.33;3.20;;;5.60;99.90;;;;;;5033330;28;20450;-76
2024/02/07 09:53:27;;;;;;;14.63;4.20;;;5.70;99.90;;;;;;5033305;28;20465;-76
2024/02/07 09:55:56;;;;;;;9.90;2.90;;;5.70;99.90;;;;;;5033245;28;20466;-76
2024/02/07 09:58:25;;;;;;;11.23;2.87;;;5.70;99.90;;;;;;5033035;28;20449;-76
2024/02/07 10:00:54;;;;;;;10.60;2.80;;;5.70;99.90;;;;;;5034063;28;20433;-76
2024/02/07 10:03:24;;;;;;;14.60;4.13;;;5.70;99.90;;;;;;5034890;28;21010;-76
2024/02/07 10:05:56;;;;;;;15.17;3.37;;;5.80;99.90;;;;;;5034893;28;20555;-76
2024/02/07 10:08:26;;;;;;;11.27;2.50;;;5.70;99.90;;;;;;5034981;28;20438;-76
2024/02/07 10:10:55;;;;;;;7.30;2.47;;;5.80;99.90;;;;;;5036387;28;20485;-76
2024/02/07 10:13:23;;;;;;;8.90;3.47;;;5.80;99.90;;;;;;5035958;28;20544;-76
2024/02/07 10:15:54;;;;;;;8.83;3.10;;;5.80;99.90;;;;;;5034642;28;20466;-76
2024/02/07 10:18:22;;;;;;;11.67;3.37;;;5.80;99.90;;;;;;5034661;28;20849;-76
2024/02/07 10:20:54;;;;;;;12.80;3.90;;;5.80;99.90;;;;;;5034677;28;20456;-76
2024/02/07 10:23:22;;;;;;;10.60;2.67;;;5.90;99.90;;;;;;5035835;28;20464;-76
2024/02/07 10:25:51;;;;;;;10.10;3.40;;;5.90;99.90;;;;;;5035241;28;20476;-76
2024/02/07 10:28:20;;;;;;;8.80;2.93;;;5.90;99.90;;;;;;5036071;28;20475;-76
2024/02/07 10:31:01;;;;;;;12.20;3.37;;;5.90;99.90;;;;;;5034453;28;20446;-76
2024/02/07 10:33:36;;;;;;;8.57;2.93;;;5.90;99.90;;;;;;5034520;28;20443;-76
2024/02/07 10:36:11;;;;;;;8.00;3.07;;;5.90;99.90;;;;;;5036222;28;20451;-76
2024/02/07 10:38:41;;;;;;;7.57;2.50;;;5.90;99.90;;;;;;5036164;28;20429;-76
2024/02/07 10:41:09;;;;;;;7.53;2.83;;;6.00;99.90;;;;;;5034160;28;20453;-76
2024/02/07 10:43:38;;;;;;;9.77;2.87;;;6.00;99.90;;;;;;5034055;28;21019;-77
2024/02/07 10:46:13;;;;;;;13.40;3.20;;;6.00;99.90;;;;;;5035779;28;20419;-76
2024/02/07 10:48:43;;;;;;;12.13;4.00;;;6.10;99.90;;;;;;5034170;28;20524;-76
2024/02/07 10:51:12;;;;;;;9.33;3.20;;;6.20;99.90;;;;;;5033994;28;20450;-76
2024/02/07 10:53:40;;;;;;;11.10;3.67;;;6.20;99.90;;;;;;5033633;28;20452;-76
2024/02/07 10:56:14;;;;;;;10.10;3.17;;;6.20;99.90;;;;;;5033941;28;20872;-76
2024/02/07 10:58:44;;;;;;;10.13;2.57;;;6.30;99.90;;;;;;5034004;28;20440;-76
2024/02/07 11:01:14;;;;;;;7.73;3.40;;;6.30;99.90;;;;;;5035739;28;20438;-76
2024/02/07 11:03:43;;;;;;;8.17;2.90;;;6.40;99.90;;;;;;5035045;28;20513;-76
2024/02/07 11:06:12;;;;;;;10.93;3.20;;;6.40;99.90;;;;;;5035338;28;20522;-76
2024/02/07 11:08:42;;;;;;;9.20;3.57;;;6.50;99.90;;;;;;5033729;28;20448;-76
2024/02/07 11:11:11;;;;;;;6.73;2.73;;;6.50;99.90;;;;;;5033562;28;20445;-76
2024/02/07 11:13:40;;;;;;;7.80;2.80;;;6.50;99.90;;;;;;5034781;28;20851;-76
2024/02/07 11:16:08;;;;;;;6.10;2.83;;;6.50;99.90;;;;;;5034856;28;20466;-76
2024/02/07 11:18:38;;;;;;;12.53;3.37;;;6.60;99.90;;;;;;5033647;28;20464;-76
2024/02/07 11:21:08;;;;;;;9.43;3.13;;;6.50;99.90;;;;;;5033533;28;21071;-76
2024/02/07 11:23:37;;;;;;;9.23;3.03;;;6.60;99.90;;;;;;5033435;28;20474;-76
2024/02/07 11:26:08;;;;;;;11.27;3.37;;;6.60;99.90;;;;;;5033436;28;20504;-76
2024/02/07 11:28:37;;;;;;;7.90;3.30;;;6.60;99.90;;;;;;5034718;28;20456;-76
2024/02/07 11:31:07;;;;;;;7.87;3.20;;;6.60;99.90;;;;;;5034535;28;20432;-77
2024/02/07 11:33:40;;;;;;;11.00;3.20;;;6.60;99.90;;;;;;5033266;28;20450;-77
2024/02/07 11:36:14;;;;;;;8.77;3.10;;;6.60;99.90;;;;;;5034812;28;20422;-77
2024/02/07 11:38:47;;;;;;;8.43;2.80;;;6.60;99.90;;;;;;5033182;28;20813;-76
2024/02/07 11:41:18;;;;;;;9.10;3.00;;;6.60;99.90;;;;;;5033127;28;20449;-76
2024/02/07 11:43:49;;;;;;;6.90;2.67;;;6.60;99.90;;;;;;5034149;28;20460;-76
2024/02/07 11:46:17;;;;;;;9.17;3.23;;;6.70;99.90;;;;;;5033040;28;20442;-76
2024/02/07 11:48:51;;;;;;;10.83;3.27;;;6.70;99.90;;;;;;5034170;28;20538;-76
2024/02/07 11:51:23;;;;;;;12.50;3.70;;;6.70;99.90;;;;;;5032888;28;20444;-76
2024/02/07 11:53:56;;;;;;;11.27;3.17;;;6.70;99.90;;;;;;5032781;28;20544;-76
2024/02/07 11:56:26;;;;;;;8.53;3.47;;;6.70;99.90;;;;;;5034268;28;20441;-76
2024/02/07 11:58:54;;;;;;;10.53;3.70;;;6.60;99.90;;;;;;5032963;28;20553;-76
2024/02/07 12:01:24;;;;;;;10.70;3.23;;;6.60;99.90;;;;;;5034040;28;20889;-76
2024/02/07 12:03:57;;;;;;;7.73;2.87;;;6.60;99.90;;;;;;5033729;28;20470;-76
2024/02/07 12:06:26;;;;;;;8.87;2.80;;;6.60;99.90;;;;;;5033894;28;20448;-76
2024/02/07 12:08:54;;;;;;;10.33;3.20;;;6.60;99.90;;;;;;5034119;28;20974;-76
2024/02/07 12:11:22;;;;;;;11.50;2.77;;;6.60;99.90;;;;;;5032511;28;20869;-76
2024/02/07 12:13:51;;;;;;;8.03;3.33;;;6.60;99.90;;;;;;5032303;28;20476;-76
2024/02/07 12:16:19;;;;;;;8.47;3.10;;;6.60;99.90;;;;;;5032827;28;20811;-76
2024/02/07 12:18:48;;;;;;;8.20;2.80;;;6.60;99.90;;;;;;5032530;28;20505;-76
2024/02/07 12:21:19;;;;;;;10.17;3.37;;;6.60;99.90;;;;;;5032358;28;20451;-76
2024/02/07 12:23:51;;;;;;;8.53;2.47;;;6.60;99.90;;;;;;5031784;28;20804;-76
2024/02/07 12:26:25;;;;;;;9.87;3.27;;;6.70;99.90;;;;;;5032420;28;20536;-75
2024/02/07 12:28:56;;;;;;;9.63;3.27;;;6.70;99.90;;;;;;5032251;28;20449;-76
2024/02/07 12:31:25;;;;;;;9.77;2.70;;;6.80;99.90;;;;;;5033701;28;20418;-76
2024/02/07 12:33:54;;;;;;;9.60;3.37;;;6.80;99.90;;;;;;5033456;28;20438;-76
2024/02/07 12:36:24;;;;;;;8.90;3.23;;;6.90;99.90;;;;;;5033742;28;20492;-76
2024/02/07 12:38:52;;;;;;;7.77;3.50;;;6.90;99.90;;;;;;5032179;28;20810;-76
2024/02/07 12:41:20;;;;;;;8.10;3.00;;;6.90;99.90;;;;;;5033422;28;20446;-75
2024/02/07 12:43:49;;;;;;;9.70;3.10;;;6.90;99.90;;;;;;5032004;28;20473;-76
2024/02/07 12:46:17;;;;;;;12.30;3.37;;;6.90;99.90;;;;;;5031982;28;20511;-76
2024/02/07 12:48:46;;;;;;;8.00;2.70;;;6.90;99.90;;;;;;5032015;28;20482;-76
2024/02/07 12:51:15;;;;;;;11.33;3.50;;;6.90;99.90;;;;;;5032016;28;20453;-76
2024/02/07 12:53:45;;;;;;;8.07;3.20;;;7.00;99.90;;;;;;5033064;28;20435;-76
2024/02/07 12:56:17;;;;;;;7.43;3.67;;;7.00;99.90;;;;;;5031946;28;20461;-75
2024/02/07 12:58:45;;;;;;;8.80;4.17;;;6.90;99.90;;;;;;5033284;28;20818;-75
2024/02/07 13:01:20;;;;;;;7.43;2.90;;;6.90;99.90;;;;;;5033143;28;20437;-76
2024/02/07 13:03:54;;;;;;;7.27;3.30;;;6.90;99.90;;;;;;5031696;28;20842;-76
2024/02/07 13:06:23;;;;;;;9.87;3.27;;;6.90;99.90;;;;;;5033385;28;20442;-76
2024/02/07 13:08:52;;;;;;;10.17;3.20;;;6.90;99.90;;;;;;5031782;28;20449;-76
2024/02/07 13:11:21;;;;;;;11.03;2.93;;;6.80;99.90;;;;;;5033064;28;20542;-76
2024/02/07 13:13:49;;;;;;;7.17;3.00;;;6.90;99.90;;;;;;5031654;28;20925;-76
2024/02/07 13:16:20;;;;;;;6.33;3.13;;;6.80;99.90;;;;;;5031798;28;20456;-76
2024/02/07 13:18:48;;;;;;;6.63;2.60;;;6.80;99.90;;;;;;5033338;28;20434;-76
2024/02/07 13:21:16;;;;;;;7.30;2.57;;;6.70;99.90;;;;;;5033002;28;20476;-75
2024/02/07 13:23:45;;;;;;;11.63;3.17;;;6.70;99.90;;;;;;5032856;28;20860;-75
2024/02/07 13:26:20;;;;;;;7.67;3.23;;;6.70;99.90;;;;;;5033221;28;20495;-76
2024/02/07 13:28:48;;;;;;;5.97;2.50;;;6.70;99.90;;;;;;5033205;28;20437;-76
2024/02/07 13:31:18;;;;;;;8.77;2.97;;;6.60;99.90;;;;;;5032476;28;20540;-75
2024/02/07 13:33:47;;;;;;;8.20;2.97;;;6.70;99.90;;;;;;5032800;28;20425;-76
2024/02/07 13:36:15;;;;;;;7.03;2.37;;;6.60;99.90;;;;;;5034883;28;20432;-76
2024/02/07 13:38:43;;;;;;;8.27;3.20;;;6.60;99.90;;;;;;5035367;28;20450;-76
2024/02/07 13:41:19;;;;;;;8.80;2.50;;;6.60;99.90;;;;;;5035345;28;20808;-76
2024/02/07 13:43:47;;;;;;;8.27;2.40;;;6.60;99.90;;;;;;5035380;28;20569;-76
2024/02/07 13:46:16;;;;;;;6.50;2.03;;;6.50;99.90;;;;;;5036594;28;20439;-76
2024/02/07 13:48:44;;;;;;;10.93;2.40;;;6.50;99.90;;;;;;5035352;28;20445;-76
2024/02/07 13:51:13;;;;;;;8.77;2.70;;;6.50;99.90;;;;;;5035094;28;20511;-76
2024/02/07 13:53:41;;;;;;;4.67;1.80;;;6.50;99.90;;;;;;5035057;28;20962;-76
2024/02/07 13:56:10;;;;;;;6.83;2.57;;;6.50;99.90;;;;;;5035055;28;20445;-76
2024/02/07 13:58:40;;;;;;;7.33;2.30;;;6.50;99.90;;;;;;5035058;28;20498;-76
2024/02/07 14:01:09;;;;;;;7.90;2.80;;;6.60;99.90;;;;;;5036228;28;20442;-76
2024/02/07 14:03:37;;;;;;;7.20;2.13;;;6.60;99.90;;;;;;5035217;28;20460;-75
2024/02/07 14:06:06;;;;;;;6.63;2.97;;;6.60;99.90;;;;;;5034839;28;20573;-75
2024/02/07 14:08:35;;;;;;;5.33;2.50;;;6.60;99.90;;;;;;5036131;28;20497;-75
2024/02/07 14:11:03;;;;;;;8.77;2.67;;;6.60;99.90;;;;;;5034764;28;20844;-76
2024/02/07 14:13:32;;;;;;;11.93;2.93;;;6.60;99.90;;;;;;5034765;28;20471;-76